Dallas, TX

10:16 AM CST on February 14, 2016 (GMT -0600)
Cement City | | Change Station
CLOSE
Current Station
Personal Weather Station
Location: Dallas, TX
Elevation: 469 ft
Nearby Weather Stations
Active Advisory: Flood Warning

Elev 469 ft 32.77 °N, 96.86 °W | Updated 1 second ago

Overcast
Overcast
61.7 °F
Feels Like 61.7 °F
N
2.0
Wind Variable Wind from SSE
Gusts 6.0 mph

Today
High -- | Low -- °F
--% Chance of Precip.
Yesterday
High -- | Low -- °F
Precip. -- in
Pressure 29.97 in
Visibility 10.0 miles
Clouds Mostly Cloudy 2200 ft
Overcast 2600 ft
Dew Point 54 °F
Humidity 76%
Rainfall 0.00 in
Snow Depth Not available.
7:11 AM 6:11 PM
Waxing Crescent, 43% visible
METAR KDAL 141553Z 19010KT 10SM BKN022 OVC026 16/11 A2998 RMK AO2 SLP147 T01610111 $
Pressure 29.97 in
Visibility 10.0 miles
Clouds Mostly Cloudy 2200 ft
Overcast 2600 ft
Dew Point 54 °F
Humidity 76%
Rainfall 0.00 in
Snow Depth Not available.
7:11 AM 6:11 PM
Waxing Crescent, 43% visible
METAR KDAL 141553Z 19010KT 10SM BKN022 OVC026 16/11 A2998 RMK AO2 SLP147 T01610111 $

10-Day Weather Forecast

Almanac

Astronomy

Feb. 14, 2016 Rise Set
Actual Time
Civil Twilight
Nautical Twilight
Astronomical Twilight
Moon
Length of Visible Light
Length of Day
Tomorrow will be .
, % of the Moon is Illuminated

Today's Extremes

State Highs State Lows

Community

WunderPhotos

Upload Photos

1,892,828 photos uploaded!

WunderBlog® & News

Nearby

Air Quality

  Air Quality AQ Index Pollutant
Not available.

Snow Depth

Station Depth Elevation

Earthquake Activity

City Distance Mag. Time & Date
Minimum magnitude displayed is 2.5.

Coastal Water Temperatures

Place Temperature

Stations

Nearby Weather Stations

Station Location Temp. Windchill Dew Point Humidity Wind Precip. Elev Updated Type
                   

Watches & Warnings

Flood Warning
Issued: 8:13 AM CST Feb. 14, 2016 – National Weather Service

The Flood Warning continues for
the Elm Fork Trinity River near Carrollton.
* At 0715 am Sunday the stage was 8.31 feet.
* Flood stage is 8 feet.
* Minor flooding is occurring and minor flooding is forecast.
* Forecast... the river will remain near 8 feet for the next several
days.
* At 8 feet, minor flooding will occur downstream from the gauge.


Lat... Lon 3300 9700 3287 9699 3287 9687 3300 9688